Time;durP1;ratioP1;P1;durP2;ratioP2;P2;SDS_P1;SDS_P2;PMS_P1;PMS_P2;Temp;Humidity;BMP_temperature;BMP_pressure;BME280_temperature;BME280_humidity;BME280_pressure;Samples;Min_cycle;Max_cycle;Signal;HPM_P1;HPM_P2
2022/09/15 00:01:43;;;;;;;8.90;4.22;;;;;;;13.02;94.92;99763.13;7395691;19;20021;-69
2022/09/15 00:04:12;;;;;;;8.13;4.20;;;;;;;13.02;94.73;99767.56;7395529;19;20424;-68
2022/09/15 00:06:40;;;;;;;8.05;4.32;;;;;;;12.97;95.13;99767.78;7395834;19;20021;-69
2022/09/15 00:09:11;;;;;;;9.73;4.50;;;;;;;12.97;95.00;99772.19;7394450;19;20015;-69
2022/09/15 00:11:40;;;;;;;11.38;4.38;;;;;;;12.96;95.23;99773.13;7396203;19;20066;-67
2022/09/15 00:14:10;;;;;;;10.07;4.55;;;;;;;12.93;95.24;99763.59;7395233;19;20015;-68
2022/09/15 00:16:39;;;;;;;8.90;4.75;;;;;;;12.91;95.08;99765.41;7393641;19;20180;-68
2022/09/15 00:19:08;;;;;;;10.50;4.38;;;;;;;12.88;94.92;99762.94;7394232;19;20019;-68
2022/09/15 00:21:40;;;;;;;8.25;4.07;;;;;;;12.85;95.16;99765.72;7393469;19;20015;-68
2022/09/15 00:24:12;;;;;;;7.65;4.22;;;;;;;12.82;95.26;99766.72;7394671;19;20006;-68
2022/09/15 00:26:40;;;;;;;8.45;4.40;;;;;;;12.79;95.10;99766.88;7395802;19;20135;-68
2022/09/15 00:29:09;;;;;;;7.88;4.43;;;;;;;12.76;95.20;99767.00;7392942;19;20382;-68
2022/09/15 00:31:37;;;;;;;7.45;4.70;;;;;;;12.75;95.31;99764.44;7395269;19;20023;-68
2022/09/15 00:34:06;;;;;;;13.68;4.97;;;;;;;12.72;95.55;99768.06;7394471;19;20544;-68
2022/09/15 00:36:35;;;;;;;9.88;4.43;;;;;;;12.68;95.65;99772.63;7394789;19;20015;-68
2022/09/15 00:39:03;;;;;;;6.32;4.32;;;;;;;12.67;95.65;99770.06;7394168;19;20083;-68
2022/09/15 00:41:34;;;;;;;8.10;4.82;;;;;;;12.65;95.71;99771.91;7394587;19;20512;-68
2022/09/15 00:44:05;;;;;;;8.95;5.20;;;;;;;12.64;95.77;99780.75;7395363;19;20036;-68
2022/09/15 00:46:35;;;;;;;6.95;4.78;;;;;;;12.61;95.96;99788.75;7395322;19;20014;-68
2022/09/15 00:49:09;;;;;;;11.48;4.63;;;;;;;12.58;95.95;99783.66;7393583;19;20070;-67
2022/09/15 00:51:41;;;;;;;10.97;5.20;;;;;;;12.54;95.76;99789.03;7394455;19;20074;-68
2022/09/15 00:54:24;;;;;;;8.43;4.97;;;;;;;12.51;96.33;99789.19;7393106;19;20018;-68
2022/09/15 00:56:58;;;;;;;10.98;5.00;;;;;;;12.47;96.37;99777.09;7392368;19;20074;-68
2022/09/15 00:59:30;;;;;;;7.43;4.95;;;;;;;12.45;96.12;99776.31;7392310;19;20015;-68
2022/09/15 01:02:07;;;;;;;12.95;4.88;;;;;;;12.43;96.32;99779.94;7394862;19;20090;-68
2022/09/15 01:04:35;;;;;;;13.80;4.95;;;;;;;12.43;96.04;99779.94;7392052;19;20037;-69
2022/09/15 01:07:06;;;;;;;7.82;4.82;;;;;;;12.41;96.28;99785.25;7393899;19;20094;-69
2022/09/15 01:09:40;;;;;;;8.45;4.57;;;;;;;12.39;96.13;99779.19;7392539;19;20102;-69
2022/09/15 01:12:11;;;;;;;10.95;5.05;;;;;;;12.37;96.53;99781.03;7394282;19;20508;-69
2022/09/15 01:14:39;;;;;;;10.70;5.15;;;;;;;12.35;96.53;99788.16;7392254;19;20015;-69
2022/09/15 01:17:18;;;;;;;8.85;4.70;;;;;;;12.33;96.39;99776.84;7393667;19;20495;-69
2022/09/15 01:20:22;;;;;;;11.10;5.00;;;;;;;12.32;96.30;99780.38;7391972;19;20025;-69
2022/09/15 01:23:22;;;;;;;8.85;4.72;;;;;;;12.28;96.33;99778.81;7393844;19;20074;-68
2022/09/15 01:26:16;;;;;;;7.35;4.75;;;;;;;12.25;96.30;99785.06;7392151;19;20021;-69
2022/09/15 01:29:07;;;;;;;9.37;4.80;;;;;;;12.20;96.19;99782.63;7398035;19;20021;-69
2022/09/15 01:33:02;;;;;;;10.32;5.88;;;;;;;12.18;96.40;99787.13;7401447;19;20455;-68
2022/09/15 01:34:35;;;;;;;8.57;4.45;;;;;;;12.12;96.05;99776.00;7399890;19;20032;-69
2022/09/15 01:37:07;;;;;;;13.00;5.07;;;;;;;12.10;96.20;99783.13;7397885;19;20369;-68
2022/09/15 01:39:41;;;;;;;8.65;6.28;;;;;;;12.06;96.12;99777.13;7398238;19;20081;-69
2022/09/15 01:42:14;;;;;;;10.82;5.72;;;;;;;12.02;96.32;99770.31;7400933;19;20016;-68
2022/09/15 01:44:47;;;;;;;10.45;5.18;;;;;;;12.00;96.29;99777.41;7400737;19;20015;-68
2022/09/15 01:47:22;;;;;;;12.48;5.55;;;;;;;11.96;96.30;99770.56;7400886;19;20081;-68
2022/09/15 01:49:55;;;;;;;10.43;5.65;;;;;;;11.93;96.54;99763.66;7397423;19;20015;-68
2022/09/15 01:52:27;;;;;;;13.05;6.28;;;;;;;11.90;96.28;99762.00;7400007;19;20017;-69
2022/09/15 01:54:59;;;;;;;10.80;6.47;;;;;;;11.87;96.14;99756.88;7399892;19;20078;-68
2022/09/15 01:57:29;;;;;;;13.00;5.93;;;;;;;11.85;96.17;99763.09;7399814;19;20078;-68
2022/09/15 01:59:58;;;;;;;12.52;6.50;;;;;;;11.81;96.32;99772.88;7397269;19;20536;-69
2022/09/15 02:02:34;;;;;;;12.35;6.55;;;;;;;11.77;96.47;99770.47;7397217;19;20430;-69
2022/09/15 02:05:08;;;;;;;13.02;6.00;;;;;;;11.75;96.80;99778.41;7400045;19;20011;-69
2022/09/15 02:07:46;;;;;;;9.93;5.75;;;;;;;11.73;96.92;99772.38;7399251;19;20021;-69
2022/09/15 02:10:22;;;;;;;15.60;6.35;;;;;;;11.70;97.13;99776.00;7400161;19;20415;-69
2022/09/15 02:12:58;;;;;;;10.45;6.35;;;;;;;11.69;96.91;99773.41;7400044;19;20090;-69
2022/09/15 02:15:32;;;;;;;12.35;6.15;;;;;;;11.67;97.09;99770.00;7398100;19;20011;-69
2022/09/15 02:18:07;;;;;;;10.20;6.45;;;;;;;11.65;96.92;99777.97;7399013;19;20044;-69
2022/09/15 02:20:43;;;;;;;10.73;6.38;;;;;;;11.62;97.00;99780.69;7399695;19;20022;-68
2022/09/15 02:23:17;;;;;;;11.25;6.13;;;;;;;11.61;97.44;99783.38;7396405;19;20483;-68
2022/09/15 02:25:50;;;;;;;10.32;6.65;;;;;;;11.57;97.44;99775.66;7397832;19;20014;-69
2022/09/15 02:28:23;;;;;;;12.48;6.72;;;;;;;11.58;97.25;99773.88;7397935;19;20483;-69
2022/09/15 02:30:54;;;;;;;13.32;7.10;;;;;;;11.57;97.46;99770.41;7397480;19;20015;-69
2022/09/15 02:33:31;;;;;;;12.63;6.40;;;;;;;11.56;97.43;99778.31;7399104;19;20025;-68
2022/09/15 02:36:00;;;;;;;12.23;6.80;;;;;;;11.54;97.57;99775.75;7396770;19;20022;-69
2022/09/15 02:38:35;;;;;;;10.27;6.07;;;;;;;11.53;97.54;99773.19;7396674;19;20015;-69
2022/09/15 02:41:04;;;;;;;12.60;7.10;;;;;;;11.51;97.81;99770.66;7397932;19;20010;-69
2022/09/15 02:43:33;;;;;;;16.42;6.43;;;;;;;11.48;97.70;99770.75;7398580;19;20010;-69
2022/09/15 02:46:01;;;;;;;15.82;6.57;;;;;;;11.47;97.50;99769.03;7396116;19;20021;-69
2022/09/15 02:48:32;;;;;;;9.90;6.70;;;;;;;11.47;97.71;99763.78;7397461;19;20025;-69
2022/09/15 02:51:01;;;;;;;37.25;22.65;;;;;;;11.46;97.54;99766.47;7398056;19;20425;-69
2022/09/15 02:53:29;;;;;;;13.00;7.00;;;;;;;11.44;97.71;99758.69;7398184;19;20433;-69
2022/09/15 02:55:58;;;;;;;13.52;6.47;;;;;;;11.42;97.62;99763.13;7396879;19;20020;-69
2022/09/15 02:58:26;;;;;;;10.98;6.35;;;;;;;11.42;97.69;99771.00;7395883;19;20101;-69
2022/09/15 03:00:55;;;;;;;11.13;6.22;;;;;;;11.40;97.83;99762.34;7397664;19;20015;-69
2022/09/15 03:03:23;;;;;;;12.48;6.97;;;;;;;11.40;97.81;99764.97;7395942;19;20024;-69
2022/09/15 03:06:15;;;;;;;18.27;6.45;;;;;;;11.40;97.70;99762.34;7397448;19;20011;-69
2022/09/15 03:08:43;;;;;;;11.85;6.28;;;;;;;11.38;97.67;99769.44;7396191;19;20022;-69
2022/09/15 03:11:11;;;;;;;10.40;6.32;;;;;;;11.37;97.51;99763.34;7395776;19;20018;-69
2022/09/15 03:13:41;;;;;;;12.65;8.50;;;;;;;11.35;97.56;99756.44;7396050;19;20015;-69
2022/09/15 03:16:10;;;;;;;11.63;6.45;;;;;;;11.36;97.42;99760.75;7395140;19;20022;-69
2022/09/15 03:18:39;;;;;;;10.43;6.95;;;;;;;11.36;97.42;99758.13;7395394;19;20017;-69
2022/09/15 03:21:12;;;;;;;13.50;6.90;;;;;;;11.33;97.36;99764.34;7395527;19;20093;-69
2022/09/15 03:23:41;;;;;;;12.90;7.22;;;;;;;11.33;97.57;99756.47;7397363;19;20093;-69
2022/09/15 03:26:11;;;;;;;10.85;6.88;;;;;;;11.34;97.61;99754.72;7394752;19;20014;-69
2022/09/15 03:28:40;;;;;;;11.32;6.53;;;;;;;11.35;97.62;99764.31;7395959;19;20089;-69
2022/09/15 03:31:10;;;;;;;9.88;6.53;;;;;;;11.36;97.78;99755.50;7394895;19;20488;-69
2022/09/15 03:33:39;;;;;;;13.60;6.95;;;;;;;11.37;97.75;99751.97;7395053;19;20014;-67
2022/09/15 03:36:11;;;;;;;24.17;10.02;;;;;;;11.41;97.50;99761.41;7395833;19;20094;-69
2022/09/15 03:38:39;;;;;;;54.65;19.42;;;;;;;11.43;97.48;99764.84;7397072;19;20018;-68
2022/09/15 03:41:10;;;;;;;64.55;23.60;;;;;;;11.44;97.52;99758.69;7395893;19;20089;-68
2022/09/15 03:43:40;;;;;;;44.08;20.85;;;;;;;11.49;97.42;99764.59;7396633;19;20022;-69
2022/09/15 03:46:10;;;;;;;27.65;12.20;;;;;;;11.51;97.29;99762.78;7393960;19;20018;-68
2022/09/15 03:48:39;;;;;;;17.08;9.38;;;;;;;11.50;97.22;99757.56;7395323;19;20037;-69
2022/09/15 03:51:11;;;;;;;12.77;7.70;;;;;;;11.54;97.41;99762.63;7393601;19;20035;-69
2022/09/15 03:53:42;;;;;;;18.23;6.88;;;;;;;11.54;97.46;99754.75;7394253;19;20015;-68
2022/09/15 03:56:19;;;;;;;10.95;6.60;;;;;;;11.55;97.25;99759.09;7395205;19;20018;-68
2022/09/15 03:58:48;;;;;;;22.33;13.35;;;;;;;11.56;97.28;99754.69;7393930;19;20050;-67
2022/09/15 04:01:17;;;;;;;13.65;8.30;;;;;;;11.56;97.28;99752.91;7395913;19;20022;-67
2022/09/15 04:03:46;;;;;;;17.52;6.80;;;;;;;11.58;97.39;99755.47;7395795;19;20078;-67
2022/09/15 04:06:18;;;;;;;13.40;7.25;;;;;;;11.60;97.28;99758.03;7395166;19;20102;-68
2022/09/15 04:08:46;;;;;;;10.75;6.85;;;;;;;11.61;97.13;99770.25;7393356;19;20036;-68
2022/09/15 04:11:15;;;;;;;12.32;6.78;;;;;;;11.61;97.15;99770.25;7395409;19;20035;-69
2022/09/15 04:13:45;;;;;;;15.07;6.80;;;;;;;11.62;97.24;99772.81;7395584;19;20086;-69
2022/09/15 04:16:16;;;;;;;9.90;6.20;;;;;;;11.63;97.41;99771.06;7394689;19;20015;-67
2022/09/15 04:18:44;;;;;;;12.55;6.35;;;;;;;11.63;97.20;99766.66;7393666;19;20018;-68
2022/09/15 04:21:18;;;;;;;12.65;6.43;;;;;;;11.63;97.18;99771.91;7393534;19;20015;-68
2022/09/15 04:23:47;;;;;;;13.80;6.95;;;;;;;11.63;97.22;99771.91;7393692;19;20022;-68
2022/09/15 04:26:20;;;;;;;13.45;6.55;;;;;;;11.62;97.13;99771.97;7393542;19;20018;-68
2022/09/15 04:28:49;;;;;;;14.57;7.10;;;;;;;11.60;97.07;99779.94;7394031;19;20014;-68
2022/09/15 04:31:19;;;;;;;20.10;8.25;;;;;;;11.58;97.15;99774.72;7394658;19;20074;-68
2022/09/15 04:33:48;;;;;;;14.18;7.18;;;;;;;11.57;97.24;99780.03;7393060;19;20018;-68
2022/09/15 04:36:21;;;;;;;12.77;7.22;;;;;;;11.56;97.06;99780.94;7393438;19;20022;-68
2022/09/15 04:38:51;;;;;;;8.80;6.82;;;;;;;11.55;97.22;99782.72;7394099;19;20126;-68
2022/09/15 04:41:20;;;;;;;14.75;7.30;;;;;;;11.54;97.09;99782.81;7393867;19;20014;-67
2022/09/15 04:43:48;;;;;;;13.77;7.22;;;;;;;11.52;97.12;99768.88;7393991;19;20010;-68
2022/09/15 04:46:17;;;;;;;16.48;6.32;;;;;;;11.50;97.24;99784.69;7392494;19;20035;-68
2022/09/15 04:48:47;;;;;;;12.80;7.03;;;;;;;11.46;97.33;99779.63;7392299;19;20010;-69
2022/09/15 04:51:20;;;;;;;16.55;6.90;;;;;;;11.45;97.36;99786.66;7394153;19;20500;-69
2022/09/15 04:53:49;;;;;;;12.90;7.05;;;;;;;11.43;97.24;99798.97;7394433;19;20086;-68
2022/09/15 04:56:19;;;;;;;11.77;7.68;;;;;;;11.41;97.28;99792.94;7391609;19;20019;-69
2022/09/15 04:58:51;;;;;;;18.75;8.02;;;;;;;11.39;97.22;99800.03;7391115;19;20015;-68
2022/09/15 05:01:22;;;;;;;11.00;7.10;;;;;;;11.36;97.46;99801.00;7391785;19;20015;-69
2022/09/15 05:03:51;;;;;;;15.95;8.32;;;;;;;11.34;97.57;99804.63;7397524;19;20077;-68
2022/09/15 05:06:24;;;;;;;13.75;7.72;;;;;;;11.32;97.70;99803.81;7401161;19;20011;-69
2022/09/15 05:08:55;;;;;;;16.83;7.88;;;;;;;11.30;97.82;99803.00;7397826;19;20027;-68
2022/09/15 05:11:32;;;;;;;11.15;7.50;;;;;;;11.26;97.70;99804.94;7400060;19;20480;-69
2022/09/15 05:14:01;;;;;;;17.30;8.50;;;;;;;11.25;97.99;99798.81;7397383;19;20019;-68
2022/09/15 05:16:31;;;;;;;17.05;8.13;;;;;;;11.25;97.90;99798.81;7399122;19;20139;-69
2022/09/15 05:19:01;;;;;;;16.65;7.63;;;;;;;11.24;97.95;99801.50;7397849;19;20031;-69
2022/09/15 05:21:33;;;;;;;17.75;8.10;;;;;;;11.23;97.83;99803.28;7401121;19;20027;-69
2022/09/15 05:24:02;;;;;;;17.20;8.77;;;;;;;11.22;98.04;99801.56;7399739;19;20019;-69
2022/09/15 05:26:31;;;;;;;17.00;9.00;;;;;;;11.23;98.04;99799.78;7400112;19;20019;-69
2022/09/15 05:29:00;;;;;;;18.27;9.65;;;;;;;11.23;98.02;99805.91;7397979;19;20018;-69
2022/09/15 05:31:32;;;;;;;16.77;8.20;;;;;;;11.24;97.92;99806.75;7397115;19;20031;-69
2022/09/15 05:34:03;;;;;;;15.65;9.45;;;;;;;11.26;98.21;99807.56;7398283;19;20458;-69
2022/09/15 05:36:34;;;;;;;18.48;9.48;;;;;;;11.27;98.38;99803.97;7399528;19;20433;-69
2022/09/15 05:39:03;;;;;;;18.42;9.68;;;;;;;11.28;98.73;99804.84;7398563;19;20026;-69
2022/09/15 05:41:32;;;;;;;19.35;9.75;;;;;;;11.31;98.61;99809.97;7400232;19;20014;-69
2022/09/15 05:44:00;;;;;;;13.77;9.75;;;;;;;11.33;98.54;99811.63;7397274;19;20022;-69
2022/09/15 05:46:29;;;;;;;17.85;9.32;;;;;;;11.35;98.83;99796.66;7400305;19;20036;-69
2022/09/15 05:48:59;;;;;;;18.40;11.25;;;;;;;11.40;98.83;99804.38;7398100;19;20015;-69
2022/09/15 05:51:29;;;;;;;19.38;10.65;;;;;;;11.45;98.93;99798.91;7397134;19;20028;-68
2022/09/15 05:54:00;;;;;;;18.55;10.52;;;;;;;11.49;98.93;99803.16;7399564;19;20031;-68
2022/09/15 05:56:28;;;;;;;19.50;11.15;;;;;;;11.53;99.04;99792.44;7399373;19;20047;-68
2022/09/15 05:58:57;;;;;;;22.73;10.60;;;;;;;11.59;99.05;99793.97;7397305;19;20094;-68
2022/09/15 06:01:27;;;;;;;18.63;10.98;;;;;;;11.63;98.88;99798.16;7399286;19;20432;-68
2022/09/15 06:03:56;;;;;;;23.40;10.70;;;;;;;11.67;99.07;99796.28;7396496;19;20010;-68
2022/09/15 06:06:26;;;;;;;20.45;11.07;;;;;;;11.71;98.97;99796.09;7396237;19;20015;-68
2022/09/15 06:08:59;;;;;;;17.02;11.07;;;;;;;11.74;99.04;99795.13;7397415;19;20015;-68
2022/09/15 06:11:32;;;;;;;23.77;10.55;;;;;;;11.80;99.16;99794.81;7398719;19;20077;-68
2022/09/15 06:14:01;;;;;;;18.75;10.82;;;;;;;11.85;99.25;99795.53;7394717;19;20102;-68
2022/09/15 06:16:37;;;;;;;22.45;12.00;;;;;;;11.94;98.91;99793.41;7398729;19;20019;-68
2022/09/15 06:19:06;;;;;;;23.73;12.13;;;;;;;12.00;98.83;99793.19;7397464;19;20031;-68
2022/09/15 06:21:35;;;;;;;20.17;11.88;;;;;;;12.06;98.82;99787.66;7396489;19;20031;-68
2022/09/15 06:24:06;;;;;;;16.13;10.23;;;;;;;12.13;98.72;99789.09;7398786;19;20465;-68
2022/09/15 06:26:37;;;;;;;17.17;10.65;;;;;;;12.24;98.45;99787.78;7398420;19;20018;-70
2022/09/15 06:29:07;;;;;;;16.70;9.43;;;;;;;12.31;98.03;99787.44;7396255;19;20088;-68
2022/09/15 06:31:37;;;;;;;16.38;8.65;;;;;;;12.37;97.64;99795.06;7397653;19;20033;-68
2022/09/15 06:34:05;;;;;;;15.82;7.97;;;;;;;12.46;96.94;99792.94;7395542;19;20481;-70
2022/09/15 06:36:34;;;;;;;17.00;8.50;;;;;;;12.52;96.58;99795.28;7397219;19;20501;-67
2022/09/15 06:39:03;;;;;;;16.88;8.27;;;;;;;12.60;96.47;99792.31;7396477;19;20014;-67
2022/09/15 06:41:32;;;;;;;15.73;7.72;;;;;;;12.66;96.17;99794.66;7396018;19;20018;-68
2022/09/15 06:44:03;;;;;;;13.48;6.88;;;;;;;12.73;95.77;99801.34;7397989;19;20022;-68
2022/09/15 06:46:32;;;;;;;14.48;5.97;;;;;;;12.79;95.40;99798.44;7398682;19;20014;-68
2022/09/15 06:49:00;;;;;;;7.10;5.10;;;;;;;12.86;94.65;99791.97;7396629;19;20077;-67
2022/09/15 06:51:34;;;;;;;7.75;4.97;;;;;;;12.93;94.47;99795.19;7397947;19;20015;-68
2022/09/15 06:54:02;;;;;;;7.47;3.93;;;;;;;13.00;93.55;99795.72;7397821;19;20484;-68
2022/09/15 06:56:31;;;;;;;9.40;4.30;;;;;;;13.06;93.64;99795.44;7396929;19;20015;-69
2022/09/15 06:59:03;;;;;;;9.52;4.13;;;;;;;13.10;92.42;99798.78;7396515;19;20090;-68
2022/09/15 07:01:33;;;;;;;8.63;4.07;;;;;;;13.10;91.98;99799.63;7397462;19;20022;-68
2022/09/15 07:04:03;;;;;;;9.85;5.20;;;;;;;13.14;92.12;99793.31;7395472;19;20019;-68
2022/09/15 07:06:32;;;;;;;7.90;4.05;;;;;;;13.18;91.88;99799.25;7395403;19;20035;-69
2022/09/15 07:09:02;;;;;;;7.43;4.43;;;;;;;13.18;91.62;99800.13;7395403;19;20031;-67
2022/09/15 07:11:31;;;;;;;9.73;3.75;;;;;;;13.18;91.80;99794.88;7396764;19;20014;-67
2022/09/15 07:14:00;;;;;;;10.23;3.95;;;;;;;13.19;91.91;99796.59;7396758;19;20485;-68
2022/09/15 07:16:31;;;;;;;12.27;4.43;;;;;;;13.19;91.52;99796.59;7394165;19;20086;-68
2022/09/15 07:19:02;;;;;;;7.60;3.90;;;;;;;13.21;91.90;99799.13;7395314;19;20510;-68
2022/09/15 07:21:31;;;;;;;15.73;4.65;;;;;;;13.22;91.78;99795.59;7395172;19;20087;-69
2022/09/15 07:24:00;;;;;;;10.27;3.80;;;;;;;13.24;91.50;99800.78;7395520;19;20432;-68
2022/09/15 07:26:30;;;;;;;8.07;3.95;;;;;;;13.25;91.42;99807.75;7393350;19;20460;-68
2022/09/15 07:29:01;;;;;;;8.18;4.00;;;;;;;13.26;91.48;99807.66;7394645;19;20014;-69
2022/09/15 07:31:34;;;;;;;10.80;4.43;;;;;;;13.30;91.43;99808.38;7396488;19;20103;-69
2022/09/15 07:34:03;;;;;;;8.65;4.88;;;;;;;13.31;91.20;99810.94;7394391;19;20031;-69
2022/09/15 07:36:32;;;;;;;9.35;4.53;;;;;;;13.36;90.78;99813.34;7394363;19;20022;-69
2022/09/15 07:39:01;;;;;;;11.45;4.60;;;;;;;13.40;90.50;99822.84;7394137;19;20077;-67
2022/09/15 07:41:31;;;;;;;10.68;5.53;;;;;;;13.44;89.74;99808.59;7395464;19;20014;-66
2022/09/15 07:44:01;;;;;;;9.70;4.13;;;;;;;13.50;89.48;99826.72;7395089;19;20018;-67
2022/09/15 07:46:36;;;;;;;9.77;4.35;;;;;;;13.56;88.98;99815.06;7394692;19;20493;-68
2022/09/15 07:49:07;;;;;;;9.90;4.75;;;;;;;13.62;89.19;99819.16;7395303;19;20028;-69
2022/09/15 07:51:35;;;;;;;7.78;3.83;;;;;;;13.67;89.37;99830.31;7396585;19;20014;-68
2022/09/15 07:54:04;;;;;;;11.80;4.18;;;;;;;13.73;89.18;99837.94;7396310;19;20019;-70
2022/09/15 07:56:32;;;;;;;9.27;5.20;;;;;;;13.81;88.63;99829.63;7397614;19;20007;-68
2022/09/15 07:59:01;;;;;;;6.75;4.18;;;;;;;13.88;88.66;99836.31;7394690;19;20018;-69
2022/09/15 08:01:29;;;;;;;9.10;4.90;;;;;;;13.97;88.22;99833.22;7396311;19;20035;-67
2022/09/15 08:04:00;;;;;;;6.80;3.92;;;;;;;14.05;88.40;99831.97;7395310;19;20015;-67
2022/09/15 08:06:29;;;;;;;13.00;5.60;;;;;;;14.14;88.05;99836.78;7395277;19;20404;-68
2022/09/15 08:08:58;;;;;;;10.30;4.25;;;;;;;14.19;87.83;99840.03;7394085;19;20036;-67
2022/09/15 08:11:26;;;;;;;10.93;4.10;;;;;;;14.27;87.35;99839.66;7396712;19;20015;-67
2022/09/15 08:13:55;;;;;;;8.75;3.90;;;;;;;14.30;87.50;99842.97;7395619;19;20039;-68
2022/09/15 08:16:25;;;;;;;5.20;3.42;;;;;;;14.35;87.62;99845.38;7396308;19;20040;-67
2022/09/15 08:18:55;;;;;;;10.43;3.38;;;;;;;14.39;86.74;99836.38;7394198;19;20026;-69
2022/09/15 08:21:26;;;;;;;9.40;2.90;;;;;;;14.44;86.36;99842.25;7395587;19;20015;-68
2022/09/15 08:23:56;;;;;;;5.13;3.10;;;;;;;14.51;86.20;99837.53;7395891;19;20010;-67
2022/09/15 08:26:26;;;;;;;8.43;2.85;;;;;;;14.57;85.57;99842.50;7393779;19;20018;-68
2022/09/15 08:28:55;;;;;;;9.00;3.28;;;;;;;14.63;85.94;99846.56;7392748;19;20031;-68
2022/09/15 08:31:24;;;;;;;7.25;2.95;;;;;;;14.68;85.51;99847.22;7394212;19;20040;-66
2022/09/15 08:33:55;;;;;;;5.18;3.17;;;;;;;14.74;85.88;99846.03;7392437;19;20078;-68
2022/09/15 08:36:27;;;;;;;9.02;2.88;;;;;;;14.83;85.45;99856.09;7393808;19;20351;-67
2022/09/15 08:38:55;;;;;;;6.57;2.28;;;;;;;14.90;84.55;99852.22;7397462;19;20019;-68
2022/09/15 08:41:27;;;;;;;4.53;2.30;;;;;;;14.94;82.76;99853.75;7399390;19;20022;-68
2022/09/15 08:44:01;;;;;;;5.18;2.17;;;;;;;15.01;81.01;99848.13;7402650;19;20031;-67
2022/09/15 08:46:36;;;;;;;4.95;1.42;;;;;;;15.07;80.82;99845.16;7402553;19;20369;-68
2022/09/15 08:49:11;;;;;;;6.53;2.30;;;;;;;15.14;77.91;99849.16;7400614;19;20019;-67
2022/09/15 08:51:49;;;;;;;9.55;1.95;;;;;;;15.22;77.65;99861.94;7399799;19;20049;-67
2022/09/15 08:54:22;;;;;;;5.22;2.08;;;;;;;15.27;77.60;99857.25;7402023;19;20510;-68
2022/09/15 08:56:51;;;;;;;9.10;1.77;;;;;;;15.35;77.87;99852.38;7399362;19;20497;-68
2022/09/15 08:59:21;;;;;;;5.72;1.60;;;;;;;15.41;77.80;99846.75;7400109;19;20011;-67
2022/09/15 09:02:23;;;;;;;12.23;2.63;;;;;;;15.43;75.93;99866.03;7400444;19;20011;-68
2022/09/15 09:05:12;;;;;;;4.25;1.38;;;;;;;15.46;73.99;99865.03;7402357;19;20018;-69
2022/09/15 09:07:58;;;;;;;7.30;2.00;;;;;;;15.47;76.35;99857.00;7401704;19;20026;-74
2022/09/15 09:10:36;;;;;;;6.00;1.83;;;;;;;15.51;75.61;99864.78;7400885;19;20101;-71
2022/09/15 09:13:18;;;;;;;9.50;1.90;;;;;;;15.52;73.49;99861.16;7402294;19;20036;-72
2022/09/15 09:16:02;;;;;;;4.93;1.45;;;;;;;15.57;74.13;99877.63;7401556;19;20011;-71
2022/09/15 09:18:50;;;;;;;5.93;1.20;;;;;;;15.61;73.82;99861.50;7398943;19;20400;-71
2022/09/15 09:21:25;;;;;;;5.28;1.48;;;;;;;15.66;73.62;99861.25;7399335;19;20037;-74
2022/09/15 09:24:05;;;;;;;7.95;1.85;;;;;;;15.68;74.34;99859.34;7401764;19;20007;-72
2022/09/15 09:26:38;;;;;;;4.88;1.52;;;;;;;15.72;74.37;99863.53;7397878;19;20006;-71
2022/09/15 09:29:13;;;;;;;7.18;1.27;;;;;;;15.77;74.74;99857.97;7398681;19;20015;-72
2022/09/15 09:31:43;;;;;;;3.78;1.48;;;;;;;15.80;74.45;99863.09;7398652;19;20045;-71
2022/09/15 09:34:24;;;;;;;4.13;1.60;;;;;;;15.82;74.26;99852.47;7400333;19;20488;-72
2022/09/15 09:37:17;;;;;;;2.80;1.08;;;;;;;15.87;74.25;99850.41;7400717;19;20013;-72
2022/09/15 09:39:48;;;;;;;5.22;1.52;;;;;;;15.89;73.05;99856.47;7399066;19;20432;-71
2022/09/15 09:42:19;;;;;;;4.88;1.30;;;;;;;15.94;74.07;99859.69;7398339;19;20488;-67
2022/09/15 09:44:48;;;;;;;14.70;1.50;;;;;;;15.92;73.98;99858.91;7398054;19;20022;-68
2022/09/15 09:47:17;;;;;;;3.22;1.05;;;;;;;15.92;74.09;99856.25;7400017;19;20021;-71
2022/09/15 09:49:49;;;;;;;4.03;1.20;;;;;;;15.93;73.10;99842.94;7396926;19;20019;-71
2022/09/15 09:52:34;;;;;;;3.03;1.50;;;;;;;15.95;71.60;99853.47;7401187;19;20032;-72
2022/09/15 09:55:22;;;;;;;4.97;1.40;;;;;;;15.95;72.58;99848.16;7402073;19;20015;-71
2022/09/15 09:57:51;;;;;;;5.95;1.40;;;;;;;15.96;73.09;99852.50;7400125;19;20074;-70
2022/09/15 10:00:33;;;;;;;4.65;0.85;;;;;;;15.94;70.04;99852.59;7403425;19;20036;-70
2022/09/15 10:03:13;;;;;;;4.80;1.20;;;;;;;15.99;72.00;99847.03;7401465;19;20023;-70
2022/09/15 10:05:41;;;;;;;2.38;1.20;;;;;;;16.04;72.15;99837.03;7403132;19;20019;-71
2022/09/15 10:08:18;;;;;;;4.15;1.35;;;;;;;16.07;71.75;99834.19;7398618;19;20026;-72
2022/09/15 10:10:57;;;;;;;4.20;1.40;;;;;;;16.14;69.67;99840.00;7399556;19;20018;-72
2022/09/15 10:13:25;;;;;;;3.75;1.35;;;;;;;16.15;71.12;99841.69;7399487;19;20514;-72
2022/09/15 10:15:56;;;;;;;3.55;1.40;;;;;;;16.17;69.93;99836.31;7399449;19;20476;-71
2022/09/15 10:18:32;;;;;;;4.00;1.10;;;;;;;16.17;69.26;99838.97;7398547;19;20119;-73
2022/09/15 10:21:01;;;;;;;3.85;1.25;;;;;;;16.19;70.54;99851.16;7399647;19;20027;-71
2022/09/15 10:23:32;;;;;;;3.38;1.20;;;;;;;16.19;69.34;99852.94;7399794;19;20018;-71
2022/09/15 10:26:30;;;;;;;3.55;1.33;;;;;;;16.23;70.54;99842.09;7397488;19;20006;-72
2022/09/15 10:29:14;;;;;;;5.00;1.52;;;;;;;16.30;67.64;99855.78;7397470;19;20011;-71
2022/09/15 10:31:45;;;;;;;2.08;1.10;;;;;;;16.33;69.03;99847.69;7399803;19;20488;-71
2022/09/15 10:34:29;;;;;;;3.85;1.30;;;;;;;16.36;66.42;99844.00;7399248;19;20070;-71
2022/09/15 10:37:10;;;;;;;7.25;1.45;;;;;;;16.36;65.21;99852.78;7399206;19;20015;-71
2022/09/15 10:39:53;;;;;;;4.68;1.60;;;;;;;16.38;66.64;99845.59;7397642;19;20089;-71
2022/09/15 10:42:38;;;;;;;7.03;1.52;;;;;;;16.40;66.68;99851.69;7400217;19;20040;-70
2022/09/15 10:45:19;;;;;;;3.17;1.23;;;;;;;16.43;67.06;99845.34;7398853;19;20031;-71
2022/09/15 10:48:17;;;;;;;6.13;1.67;;;;;;;16.51;66.66;99839.56;7398226;19;20021;-70
2022/09/15 10:50:57;;;;;;;3.60;1.23;;;;;;;16.61;66.30;99838.06;7398096;19;20074;-71
2022/09/15 10:53:43;;;;;;;3.70;1.63;;;;;;;16.74;67.40;99839.03;7398517;19;20077;-73
2022/09/15 10:56:25;;;;;;;2.60;0.98;;;;;;;16.87;66.74;99840.88;7398358;19;20501;-71
2022/09/15 10:59:22;;;;;;;4.65;1.52;;;;;;;16.99;65.27;99847.25;7396890;19;20372;-71
2022/09/15 11:02:03;;;;;;;5.00;1.35;;;;;;;17.13;64.77;99846.38;7397098;19;20090;-73
2022/09/15 11:04:50;;;;;;;5.10;1.10;;;;;;;17.19;61.12;99851.31;7397878;19;20482;-72
2022/09/15 11:07:33;;;;;;;4.28;1.10;;;;;;;17.23;62.60;99840.38;7398506;19;20011;-72
2022/09/15 11:10:11;;;;;;;2.83;1.33;;;;;;;17.23;61.69;99845.69;7397840;19;20018;-69
2022/09/15 11:12:53;;;;;;;4.60;1.23;;;;;;;17.26;61.14;99845.50;7395447;19;20019;-69
2022/09/15 11:15:34;;;;;;;3.13;0.82;;;;;;;17.28;61.85;99848.06;7397070;19;20027;-70
2022/09/15 11:18:24;;;;;;;5.07;1.13;;;;;;;17.33;60.23;99847.78;7395442;19;20017;-72
2022/09/15 11:21:07;;;;;;;5.00;1.20;;;;;;;17.26;59.13;99863.19;7395370;19;20023;-71
2022/09/15 11:23:40;;;;;;;3.50;1.48;;;;;;;17.27;61.59;99849.00;7395204;19;20023;-69
2022/09/15 11:26:20;;;;;;;3.35;1.08;;;;;;;17.20;58.54;99843.25;7394396;19;20477;-71
2022/09/15 11:28:59;;;;;;;7.32;1.40;;;;;;;17.14;58.06;99840.16;7395382;19;20168;-72
2022/09/15 11:31:34;;;;;;;2.67;0.95;;;;;;;17.09;60.21;99841.25;7396857;19;20011;-70
2022/09/15 11:34:08;;;;;;;2.63;0.60;;;;;;;17.02;59.75;99849.69;7395886;19;20495;-71
2022/09/15 11:36:44;;;;;;;2.38;0.90;;;;;;;17.03;61.46;99840.81;7394509;19;20014;-71
2022/09/15 11:39:20;;;;;;;2.38;1.02;;;;;;;17.07;61.65;99835.22;7394599;19;20031;-71
2022/09/15 11:41:55;;;;;;;6.63;1.40;;;;;;;17.18;62.18;99852.25;7396859;19;20011;-71
2022/09/15 11:44:29;;;;;;;2.13;1.13;;;;;;;17.25;62.68;99835.84;7395975;19;20015;-71
2022/09/15 11:47:08;;;;;;;;;;;;;;;17.31;62.02;99836.41;7398588;19;20358;-71
2022/09/15 11:49:42;;;;;;;3.05;1.13;;;;;;;17.37;63.05;99836.84;7395411;19;19927;-71
2022/09/15 11:52:24;;;;;;;6.65;1.70;;;;;;;17.40;62.41;99841.09;7397679;19;20017;-71
2022/09/15 11:54:58;;;;;;;4.13;1.30;;;;;;;17.38;62.08;99833.25;7396428;19;20050;-71
2022/09/15 11:57:32;;;;;;;3.60;1.20;;;;;;;17.41;63.24;99827.75;7394827;19;20014;-70